sensor_id;sensor_type;location;lat;lon;timestamp;temperature;humidity
17033;DHT22;63208;52.178;21.016;2023-06-24T00:00:00;20.20;99.90
17033;DHT22;63208;52.178;21.016;2023-06-24T00:02:27;20.10;99.90
17033;DHT22;63208;52.178;21.016;2023-06-24T00:04:54;20.10;99.90
17033;DHT22;63208;52.178;21.016;2023-06-24T00:07:25;20.10;99.90
17033;DHT22;63208;52.178;21.016;2023-06-24T00:09:52;20.10;99.90
17033;DHT22;63208;52.178;21.016;2023-06-24T00:12:19;20.10;99.90
17033;DHT22;63208;52.178;21.016;2023-06-24T00:14:48;20.10;99.90
17033;DHT22;63208;52.178;21.016;2023-06-24T00:17:15;20.10;99.90
17033;DHT22;63208;52.178;21.016;2023-06-24T00:19:42;20.00;99.90
17033;DHT22;63208;52.178;21.016;2023-06-24T00:22:10;20.00;99.90
17033;DHT22;63208;52.178;21.016;2023-06-24T00:24:37;20.00;99.90
17033;DHT22;63208;52.178;21.016;2023-06-24T00:27:05;19.80;99.90
17033;DHT22;63208;52.178;21.016;2023-06-24T00:29:32;19.90;99.90
17033;DHT22;63208;52.178;21.016;2023-06-24T00:32:00;19.90;99.90
17033;DHT22;63208;52.178;21.016;2023-06-24T00:34:27;20.00;99.90
17033;DHT22;63208;52.178;21.016;2023-06-24T00:36:54;20.00;99.90
17033;DHT22;63208;52.178;21.016;2023-06-24T00:39:21;20.00;99.90
17033;DHT22;63208;52.178;21.016;2023-06-24T00:41:49;20.00;99.90
17033;DHT22;63208;52.178;21.016;2023-06-24T00:44:16;19.90;99.90
17033;DHT22;63208;52.178;21.016;2023-06-24T00:46:43;19.90;99.90
17033;DHT22;63208;52.178;21.016;2023-06-24T00:49:11;19.80;99.90
17033;DHT22;63208;52.178;21.016;2023-06-24T00:51:39;19.80;99.90
17033;DHT22;63208;52.178;21.016;2023-06-24T00:54:15;19.80;99.90
17033;DHT22;63208;52.178;21.016;2023-06-24T00:56:42;19.90;99.90
17033;DHT22;63208;52.178;21.016;2023-06-24T00:59:11;19.90;99.90
17033;DHT22;63208;52.178;21.016;2023-06-24T01:01:40;19.80;99.90
17033;DHT22;63208;52.178;21.016;2023-06-24T01:04:07;20.20;99.90
17033;DHT22;63208;52.178;21.016;2023-06-24T01:06:36;19.80;99.90
17033;DHT22;63208;52.178;21.016;2023-06-24T01:09:09;21.00;99.90
17033;DHT22;63208;52.178;21.016;2023-06-24T01:11:36;19.80;99.90
17033;DHT22;63208;52.178;21.016;2023-06-24T01:14:02;19.80;99.90
17033;DHT22;63208;52.178;21.016;2023-06-24T01:16:33;19.90;99.90
17033;DHT22;63208;52.178;21.016;2023-06-24T01:19:27;19.80;99.90
17033;DHT22;63208;52.178;21.016;2023-06-24T01:22:08;19.80;99.90
17033;DHT22;63208;52.178;21.016;2023-06-24T01:24:48;19.80;99.90
17033;DHT22;63208;52.178;21.016;2023-06-24T01:27:29;19.80;99.90
17033;DHT22;63208;52.178;21.016;2023-06-24T01:30:34;19.80;99.90
17033;DHT22;63208;52.178;21.016;2023-06-24T01:33:11;19.70;99.90
17033;DHT22;63208;52.178;21.016;2023-06-24T01:35:40;19.80;99.90
17033;DHT22;63208;52.178;21.016;2023-06-24T01:38:10;19.70;99.90
17033;DHT22;63208;52.178;21.016;2023-06-24T01:40:43;19.80;99.90
17033;DHT22;63208;52.178;21.016;2023-06-24T01:43:12;19.80;99.90
17033;DHT22;63208;52.178;21.016;2023-06-24T01:45:41;19.80;99.90
17033;DHT22;63208;52.178;21.016;2023-06-24T01:48:13;19.80;99.90
17033;DHT22;63208;52.178;21.016;2023-06-24T01:50:45;19.70;99.90
17033;DHT22;63208;52.178;21.016;2023-06-24T01:53:15;19.80;99.90
17033;DHT22;63208;52.178;21.016;2023-06-24T01:55:44;19.80;99.90
17033;DHT22;63208;52.178;21.016;2023-06-24T01:58:14;19.70;99.90
17033;DHT22;63208;52.178;21.016;2023-06-24T02:00:41;19.60;99.90
17033;DHT22;63208;52.178;21.016;2023-06-24T02:03:10;19.50;99.90
17033;DHT22;63208;52.178;21.016;2023-06-24T02:05:38;20.40;99.90
17033;DHT22;63208;52.178;21.016;2023-06-24T02:08:08;19.60;99.90
17033;DHT22;63208;52.178;21.016;2023-06-24T02:10:37;19.60;99.90
17033;DHT22;63208;52.178;21.016;2023-06-24T02:13:05;19.60;99.90
17033;DHT22;63208;52.178;21.016;2023-06-24T02:15:35;19.50;99.90
17033;DHT22;63208;52.178;21.016;2023-06-24T02:18:04;19.50;99.90
17033;DHT22;63208;52.178;21.016;2023-06-24T02:20:33;19.50;99.90
17033;DHT22;63208;52.178;21.016;2023-06-24T02:23:01;19.30;99.90
17033;DHT22;63208;52.178;21.016;2023-06-24T02:25:31;19.70;99.90
17033;DHT22;63208;52.178;21.016;2023-06-24T02:27:58;19.30;99.90
17033;DHT22;63208;52.178;21.016;2023-06-24T02:30:25;20.40;99.90
17033;DHT22;63208;52.178;21.016;2023-06-24T02:32:52;19.30;99.90
17033;DHT22;63208;52.178;21.016;2023-06-24T02:35:19;19.30;99.90
17033;DHT22;63208;52.178;21.016;2023-06-24T02:37:48;19.30;99.90
17033;DHT22;63208;52.178;21.016;2023-06-24T02:40:15;19.30;99.90
17033;DHT22;63208;52.178;21.016;2023-06-24T02:42:41;19.20;99.90
17033;DHT22;63208;52.178;21.016;2023-06-24T02:45:09;19.30;99.90
17033;DHT22;63208;52.178;21.016;2023-06-24T02:47:36;19.30;99.90
17033;DHT22;63208;52.178;21.016;2023-06-24T02:50:06;19.30;99.90
17033;DHT22;63208;52.178;21.016;2023-06-24T02:52:34;19.20;99.90
17033;DHT22;63208;52.178;21.016;2023-06-24T02:55:04;19.30;99.90
17033;DHT22;63208;52.178;21.016;2023-06-24T02:57:32;19.30;99.90
17033;DHT22;63208;52.178;21.016;2023-06-24T02:59:59;19.30;99.90
17033;DHT22;63208;52.178;21.016;2023-06-24T03:02:29;19.30;99.90
17033;DHT22;63208;52.178;21.016;2023-06-24T03:04:56;19.30;99.90
17033;DHT22;63208;52.178;21.016;2023-06-24T03:07:24;19.40;99.90
17033;DHT22;63208;52.178;21.016;2023-06-24T03:09:52;19.40;99.90
17033;DHT22;63208;52.178;21.016;2023-06-24T03:12:20;19.40;99.90
17033;DHT22;63208;52.178;21.016;2023-06-24T03:14:47;19.40;99.90
17033;DHT22;63208;52.178;21.016;2023-06-24T03:17:13;19.40;99.90
17033;DHT22;63208;52.178;21.016;2023-06-24T03:19:41;19.40;99.90
17033;DHT22;63208;52.178;21.016;2023-06-24T03:22:09;19.40;99.90
17033;DHT22;63208;52.178;21.016;2023-06-24T03:24:36;19.30;99.90
17033;DHT22;63208;52.178;21.016;2023-06-24T03:27:03;19.30;99.90
17033;DHT22;63208;52.178;21.016;2023-06-24T03:29:31;19.40;99.90
17033;DHT22;63208;52.178;21.016;2023-06-24T03:31:58;19.30;99.90
17033;DHT22;63208;52.178;21.016;2023-06-24T03:34:25;19.40;99.90
17033;DHT22;63208;52.178;21.016;2023-06-24T03:36:52;19.40;99.90
17033;DHT22;63208;52.178;21.016;2023-06-24T03:39:20;19.40;99.90
17033;DHT22;63208;52.178;21.016;2023-06-24T03:41:47;19.50;99.90
17033;DHT22;63208;52.178;21.016;2023-06-24T03:44:14;19.40;99.90
17033;DHT22;63208;52.178;21.016;2023-06-24T03:46:42;20.00;99.90
17033;DHT22;63208;52.178;21.016;2023-06-24T03:49:09;19.50;99.90
17033;DHT22;63208;52.178;21.016;2023-06-24T03:51:36;19.60;99.90
17033;DHT22;63208;52.178;21.016;2023-06-24T03:54:03;19.50;99.90
17033;DHT22;63208;52.178;21.016;2023-06-24T03:56:30;19.60;99.90
17033;DHT22;63208;52.178;21.016;2023-06-24T03:58:57;19.60;99.90
17033;DHT22;63208;52.178;21.016;2023-06-24T04:03:52;19.70;99.90
17033;DHT22;63208;52.178;21.016;2023-06-24T04:06:19;19.70;99.90
17033;DHT22;63208;52.178;21.016;2023-06-24T04:08:45;19.80;99.90
17033;DHT22;63208;52.178;21.016;2023-06-24T04:11:14;19.90;99.90
17033;DHT22;63208;52.178;21.016;2023-06-24T04:13:41;20.00;99.90
17033;DHT22;63208;52.178;21.016;2023-06-24T04:16:08;19.90;99.90
17033;DHT22;63208;52.178;21.016;2023-06-24T04:18:34;20.20;99.90
17033;DHT22;63208;52.178;21.016;2023-06-24T04:21:06;20.00;99.90
17033;DHT22;63208;52.178;21.016;2023-06-24T04:23:33;20.50;99.90
17033;DHT22;63208;52.178;21.016;2023-06-24T04:26:00;20.50;99.90
17033;DHT22;63208;52.178;21.016;2023-06-24T04:28:26;20.10;99.90
17033;DHT22;63208;52.178;21.016;2023-06-24T04:30:54;20.60;99.90
17033;DHT22;63208;52.178;21.016;2023-06-24T04:33:21;20.10;99.90
17033;DHT22;63208;52.178;21.016;2023-06-24T04:35:49;20.10;99.90
17033;DHT22;63208;52.178;21.016;2023-06-24T04:38:18;20.00;99.90
17033;DHT22;63208;52.178;21.016;2023-06-24T04:40:45;20.00;99.90
17033;DHT22;63208;52.178;21.016;2023-06-24T04:43:11;19.90;99.90
17033;DHT22;63208;52.178;21.016;2023-06-24T04:45:38;19.90;99.90
17033;DHT22;63208;52.178;21.016;2023-06-24T04:48:05;19.90;99.90
17033;DHT22;63208;52.178;21.016;2023-06-24T04:50:32;19.90;99.90
17033;DHT22;63208;52.178;21.016;2023-06-24T04:52:59;20.00;99.90
17033;DHT22;63208;52.178;21.016;2023-06-24T04:55:28;20.00;99.90
17033;DHT22;63208;52.178;21.016;2023-06-24T05:12:41;20.00;99.90
17033;DHT22;63208;52.178;21.016;2023-06-24T05:15:09;20.00;99.90
17033;DHT22;63208;52.178;21.016;2023-06-24T05:17:35;20.00;99.90
17033;DHT22;63208;52.178;21.016;2023-06-24T05:20:03;20.00;99.90
17033;DHT22;63208;52.178;21.016;2023-06-24T05:22:30;20.00;99.90
17033;DHT22;63208;52.178;21.016;2023-06-24T05:24:57;20.10;99.90
17033;DHT22;63208;52.178;21.016;2023-06-24T05:27:23;20.10;99.90
17033;DHT22;63208;52.178;21.016;2023-06-24T05:29:52;21.30;99.90
17033;DHT22;63208;52.178;21.016;2023-06-24T05:32:20;20.10;99.90
17033;DHT22;63208;52.178;21.016;2023-06-24T05:34:46;20.20;99.90
17033;DHT22;63208;52.178;21.016;2023-06-24T05:37:13;20.30;99.90
17033;DHT22;63208;52.178;21.016;2023-06-24T05:42:13;20.40;99.90
17033;DHT22;63208;52.178;21.016;2023-06-24T05:47:09;20.50;99.90
17033;DHT22;63208;52.178;21.016;2023-06-24T05:49:36;20.60;99.90
17033;DHT22;63208;52.178;21.016;2023-06-24T05:52:03;21.00;99.90
17033;DHT22;63208;52.178;21.016;2023-06-24T05:54:30;20.60;99.90
17033;DHT22;63208;52.178;21.016;2023-06-24T05:56:57;20.70;99.90
17033;DHT22;63208;52.178;21.016;2023-06-24T05:59:23;20.80;99.90
17033;DHT22;63208;52.178;21.016;2023-06-24T06:01:50;20.80;99.90
17033;DHT22;63208;52.178;21.016;2023-06-24T06:04:18;20.90;99.90
17033;DHT22;63208;52.178;21.016;2023-06-24T06:06:45;20.90;99.90
17033;DHT22;63208;52.178;21.016;2023-06-24T06:09:12;20.90;99.90
17033;DHT22;63208;52.178;21.016;2023-06-24T06:11:39;20.90;99.90
17033;DHT22;63208;52.178;21.016;2023-06-24T06:14:06;20.90;99.90
17033;DHT22;63208;52.178;21.016;2023-06-24T06:16:50;20.90;99.90
17033;DHT22;63208;52.178;21.016;2023-06-24T06:19:18;21.80;99.90
17033;DHT22;63208;52.178;21.016;2023-06-24T06:21:45;20.90;99.90
17033;DHT22;63208;52.178;21.016;2023-06-24T06:24:14;20.90;99.90
17033;DHT22;63208;52.178;21.016;2023-06-24T06:26:42;20.90;99.90
17033;DHT22;63208;52.178;21.016;2023-06-24T06:29:09;21.00;99.90
17033;DHT22;63208;52.178;21.016;2023-06-24T06:31:39;21.00;99.90
17033;DHT22;63208;52.178;21.016;2023-06-24T06:34:09;21.10;99.90
17033;DHT22;63208;52.178;21.016;2023-06-24T06:36:37;20.70;99.90
17033;DHT22;63208;52.178;21.016;2023-06-24T06:39:40;20.90;99.90
17033;DHT22;63208;52.178;21.016;2023-06-24T06:42:16;21.00;99.90
17033;DHT22;63208;52.178;21.016;2023-06-24T06:59:19;21.50;99.90
17033;DHT22;63208;52.178;21.016;2023-06-24T07:01:53;21.50;99.90
17033;DHT22;63208;52.178;21.016;2023-06-24T07:04:20;21.50;99.90
17033;DHT22;63208;52.178;21.016;2023-06-24T07:06:47;21.40;99.90
17033;DHT22;63208;52.178;21.016;2023-06-24T07:09:15;21.40;99.90
17033;DHT22;63208;52.178;21.016;2023-06-24T07:11:45;21.40;99.90
17033;DHT22;63208;52.178;21.016;2023-06-24T07:20:01;24.10;99.90
17033;DHT22;63208;52.178;21.016;2023-06-24T07:22:28;22.50;99.90
17033;DHT22;63208;52.178;21.016;2023-06-24T07:24:57;21.50;99.90
17033;DHT22;63208;52.178;21.016;2023-06-24T07:27:24;21.50;99.90
17033;DHT22;63208;52.178;21.016;2023-06-24T07:29:58;21.60;99.90
17033;DHT22;63208;52.178;21.016;2023-06-24T07:35:12;21.60;99.90
17033;DHT22;63208;52.178;21.016;2023-06-24T07:37:41;21.70;99.90
17033;DHT22;63208;52.178;21.016;2023-06-24T07:40:10;21.60;99.90
17033;DHT22;63208;52.178;21.016;2023-06-24T07:42:37;21.50;99.90
17033;DHT22;63208;52.178;21.016;2023-06-24T07:45:05;21.60;99.90
17033;DHT22;63208;52.178;21.016;2023-06-24T07:47:32;21.60;99.90
17033;DHT22;63208;52.178;21.016;2023-06-24T07:49:59;21.60;99.90
17033;DHT22;63208;52.178;21.016;2023-06-24T07:52:26;21.70;99.90
17033;DHT22;63208;52.178;21.016;2023-06-24T07:54:53;21.70;99.90
17033;DHT22;63208;52.178;21.016;2023-06-24T07:57:21;21.70;99.90
17033;DHT22;63208;52.178;21.016;2023-06-24T08:02:15;21.70;99.90
17033;DHT22;63208;52.178;21.016;2023-06-24T08:09:36;21.90;99.90
17033;DHT22;63208;52.178;21.016;2023-06-24T08:12:03;21.80;99.90
17033;DHT22;63208;52.178;21.016;2023-06-24T08:14:32;22.00;99.90
17033;DHT22;63208;52.178;21.016;2023-06-24T08:16:59;22.00;99.90
17033;DHT22;63208;52.178;21.016;2023-06-24T08:19:26;22.00;99.90
17033;DHT22;63208;52.178;21.016;2023-06-24T08:21:52;21.90;99.90
17033;DHT22;63208;52.178;21.016;2023-06-24T08:24:19;22.00;99.90
17033;DHT22;63208;52.178;21.016;2023-06-24T08:26:46;22.00;99.90
17033;DHT22;63208;52.178;21.016;2023-06-24T08:29:13;22.10;99.90
17033;DHT22;63208;52.178;21.016;2023-06-24T08:31:41;22.10;99.90
17033;DHT22;63208;52.178;21.016;2023-06-24T08:34:08;22.10;99.90
17033;DHT22;63208;52.178;21.016;2023-06-24T08:39:02;22.10;99.90
17033;DHT22;63208;52.178;21.016;2023-06-24T08:41:29;22.20;99.90
17033;DHT22;63208;52.178;21.016;2023-06-24T08:43:56;22.20;99.90
17033;DHT22;63208;52.178;21.016;2023-06-24T08:46:24;22.50;99.90
17033;DHT22;63208;52.178;21.016;2023-06-24T08:48:59;22.40;99.90
17033;DHT22;63208;52.178;21.016;2023-06-24T08:51:31;22.40;99.90
17033;DHT22;63208;52.178;21.016;2023-06-24T08:54:00;22.40;99.90
17033;DHT22;63208;52.178;21.016;2023-06-24T08:56:27;22.60;99.90
17033;DHT22;63208;52.178;21.016;2023-06-24T09:01:21;22.70;99.90
17033;DHT22;63208;52.178;21.016;2023-06-24T09:09:53;22.70;99.90
17033;DHT22;63208;52.178;21.016;2023-06-24T09:12:26;23.00;99.90
17033;DHT22;63208;52.178;21.016;2023-06-24T09:14:53;22.90;99.90
17033;DHT22;63208;52.178;21.016;2023-06-24T09:19:48;22.80;99.90
17033;DHT22;63208;52.178;21.016;2023-06-24T09:22:15;22.80;99.90
17033;DHT22;63208;52.178;21.016;2023-06-24T09:24:44;22.80;99.90
17033;DHT22;63208;52.178;21.016;2023-06-24T09:27:15;22.80;99.90
17033;DHT22;63208;52.178;21.016;2023-06-24T09:29:42;22.90;99.90
17033;DHT22;63208;52.178;21.016;2023-06-24T09:32:10;22.90;99.90
17033;DHT22;63208;52.178;21.016;2023-06-24T09:41:24;23.00;99.90
17033;DHT22;63208;52.178;21.016;2023-06-24T09:43:52;23.00;99.90
17033;DHT22;63208;52.178;21.016;2023-06-24T09:46:24;23.00;99.90
17033;DHT22;63208;52.178;21.016;2023-06-24T09:48:52;22.70;99.90
17033;DHT22;63208;52.178;21.016;2023-06-24T09:51:20;22.80;99.90
17033;DHT22;63208;52.178;21.016;2023-06-24T09:56:17;22.90;99.90
17033;DHT22;63208;52.178;21.016;2023-06-24T09:58:45;22.90;99.90
17033;DHT22;63208;52.178;21.016;2023-06-24T10:01:14;23.00;99.90
17033;DHT22;63208;52.178;21.016;2023-06-24T10:03:42;23.00;99.90
17033;DHT22;63208;52.178;21.016;2023-06-24T10:06:09;23.10;99.90
17033;DHT22;63208;52.178;21.016;2023-06-24T10:08:36;23.00;99.90
17033;DHT22;63208;52.178;21.016;2023-06-24T10:11:03;22.80;99.90
17033;DHT22;63208;52.178;21.016;2023-06-24T10:13:30;22.90;99.90
17033;DHT22;63208;52.178;21.016;2023-06-24T10:15:57;23.00;99.90
17033;DHT22;63208;52.178;21.016;2023-06-24T10:18:36;22.90;99.90
17033;DHT22;63208;52.178;21.016;2023-06-24T10:21:04;22.80;99.90
17033;DHT22;63208;52.178;21.016;2023-06-24T10:23:39;22.90;99.90
17033;DHT22;63208;52.178;21.016;2023-06-24T10:26:08;22.90;99.90
17033;DHT22;63208;52.178;21.016;2023-06-24T10:29:08;22.90;99.90
17033;DHT22;63208;52.178;21.016;2023-06-24T10:31:51;22.90;99.90
17033;DHT22;63208;52.178;21.016;2023-06-24T10:34:24;22.80;99.90
17033;DHT22;63208;52.178;21.016;2023-06-24T10:36:53;22.90;99.90
17033;DHT22;63208;52.178;21.016;2023-06-24T10:39:39;22.90;99.90
17033;DHT22;63208;52.178;21.016;2023-06-24T10:45:16;22.90;99.90
17033;DHT22;63208;52.178;21.016;2023-06-24T10:47:44;23.00;99.90
17033;DHT22;63208;52.178;21.016;2023-06-24T10:50:14;22.90;99.90
17033;DHT22;63208;52.178;21.016;2023-06-24T10:52:42;23.00;99.90
17033;DHT22;63208;52.178;21.016;2023-06-24T10:55:31;22.60;99.90
17033;DHT22;63208;52.178;21.016;2023-06-24T10:58:11;23.30;99.90
17033;DHT22;63208;52.178;21.016;2023-06-24T11:00:39;23.30;99.90
17033;DHT22;63208;52.178;21.016;2023-06-24T11:03:18;23.30;99.90
17033;DHT22;63208;52.178;21.016;2023-06-24T11:05:48;23.10;99.90
17033;DHT22;63208;52.178;21.016;2023-06-24T11:08:16;23.00;99.90
17033;DHT22;63208;52.178;21.016;2023-06-24T11:10:44;22.90;99.90
17033;DHT22;63208;52.178;21.016;2023-06-24T11:13:14;22.80;99.90
17033;DHT22;63208;52.178;21.016;2023-06-24T11:15:42;22.90;99.90
17033;DHT22;63208;52.178;21.016;2023-06-24T11:18:10;22.90;99.90
17033;DHT22;63208;52.178;21.016;2023-06-24T11:20:38;22.80;99.90
17033;DHT22;63208;52.178;21.016;2023-06-24T11:23:08;22.90;99.90
17033;DHT22;63208;52.178;21.016;2023-06-24T11:25:39;22.70;99.90
17033;DHT22;63208;52.178;21.016;2023-06-24T11:28:13;22.60;99.90
17033;DHT22;63208;52.178;21.016;2023-06-24T11:30:40;22.60;99.90
17033;DHT22;63208;52.178;21.016;2023-06-24T11:33:27;22.50;99.90
17033;DHT22;63208;52.178;21.016;2023-06-24T11:35:54;22.50;99.90
17033;DHT22;63208;52.178;21.016;2023-06-24T11:38:24;22.30;99.90
17033;DHT22;63208;52.178;21.016;2023-06-24T11:40:57;22.40;99.90
17033;DHT22;63208;52.178;21.016;2023-06-24T11:43:44;22.40;99.90
17033;DHT22;63208;52.178;21.016;2023-06-24T11:49:48;22.70;99.90
17033;DHT22;63208;52.178;21.016;2023-06-24T11:52:15;22.30;99.90
17033;DHT22;63208;52.178;21.016;2023-06-24T11:54:43;22.20;99.90
17033;DHT22;63208;52.178;21.016;2023-06-24T11:57:11;22.10;99.90
17033;DHT22;63208;52.178;21.016;2023-06-24T11:59:38;22.10;99.90
17033;DHT22;63208;52.178;21.016;2023-06-24T12:02:05;22.00;99.90
17033;DHT22;63208;52.178;21.016;2023-06-24T12:04:33;21.90;99.90
17033;DHT22;63208;52.178;21.016;2023-06-24T12:07:00;21.90;99.90
17033;DHT22;63208;52.178;21.016;2023-06-24T12:09:28;22.00;99.90
17033;DHT22;63208;52.178;21.016;2023-06-24T12:11:56;21.90;99.90
17033;DHT22;63208;52.178;21.016;2023-06-24T12:14:23;21.90;99.90
17033;DHT22;63208;52.178;21.016;2023-06-24T12:16:50;21.90;99.90
17033;DHT22;63208;52.178;21.016;2023-06-24T12:25:06;21.90;99.90
17033;DHT22;63208;52.178;21.016;2023-06-24T12:27:35;22.00;99.90
17033;DHT22;63208;52.178;21.016;2023-06-24T12:30:11;21.90;99.90
17033;DHT22;63208;52.178;21.016;2023-06-24T12:32:38;21.90;99.90
17033;DHT22;63208;52.178;21.016;2023-06-24T12:35:06;21.90;99.90
17033;DHT22;63208;52.178;21.016;2023-06-24T12:37:34;21.90;99.90
17033;DHT22;63208;52.178;21.016;2023-06-24T12:40:17;21.90;99.90
17033;DHT22;63208;52.178;21.016;2023-06-24T12:42:47;21.80;99.90
17033;DHT22;63208;52.178;21.016;2023-06-24T12:45:14;21.80;99.90
17033;DHT22;63208;52.178;21.016;2023-06-24T12:47:41;21.80;99.90
17033;DHT22;63208;52.178;21.016;2023-06-24T12:50:23;21.70;99.90
17033;DHT22;63208;52.178;21.016;2023-06-24T12:52:50;21.60;99.90
17033;DHT22;63208;52.178;21.016;2023-06-24T12:55:17;21.70;99.90
17033;DHT22;63208;52.178;21.016;2023-06-24T12:57:43;22.70;99.90
17033;DHT22;63208;52.178;21.016;2023-06-24T13:00:13;21.80;99.90
17033;DHT22;63208;52.178;21.016;2023-06-24T13:02:40;21.80;99.90
17033;DHT22;63208;52.178;21.016;2023-06-24T13:05:07;21.80;99.90
17033;DHT22;63208;52.178;21.016;2023-06-24T13:07:34;21.80;99.90
17033;DHT22;63208;52.178;21.016;2023-06-24T13:10:10;21.90;99.90
17033;DHT22;63208;52.178;21.016;2023-06-24T13:12:37;22.00;99.90
17033;DHT22;63208;52.178;21.016;2023-06-24T13:15:06;22.10;99.90
17033;DHT22;63208;52.178;21.016;2023-06-24T13:23:34;22.40;99.90
17033;DHT22;63208;52.178;21.016;2023-06-24T13:26:03;22.40;99.90
17033;DHT22;63208;52.178;21.016;2023-06-24T13:28:30;22.40;99.90
17033;DHT22;63208;52.178;21.016;2023-06-24T13:30:58;22.40;99.90
17033;DHT22;63208;52.178;21.016;2023-06-24T13:33:44;22.90;99.90
17033;DHT22;63208;52.178;21.016;2023-06-24T13:36:25;22.70;99.90
17033;DHT22;63208;52.178;21.016;2023-06-24T13:38:54;22.90;99.90
17033;DHT22;63208;52.178;21.016;2023-06-24T13:41:20;22.90;99.90
17033;DHT22;63208;52.178;21.016;2023-06-24T13:43:47;23.00;99.90
17033;DHT22;63208;52.178;21.016;2023-06-24T13:46:14;23.00;99.90
17033;DHT22;63208;52.178;21.016;2023-06-24T13:48:42;23.20;99.90
17033;DHT22;63208;52.178;21.016;2023-06-24T13:53:56;23.20;99.90
17033;DHT22;63208;52.178;21.016;2023-06-24T13:56:25;23.20;99.90
17033;DHT22;63208;52.178;21.016;2023-06-24T13:58:53;23.60;99.90
17033;DHT22;63208;52.178;21.016;2023-06-24T14:01:20;23.50;99.90
17033;DHT22;63208;52.178;21.016;2023-06-24T14:03:49;23.20;99.90
17033;DHT22;63208;52.178;21.016;2023-06-24T14:06:19;23.10;99.90
17033;DHT22;63208;52.178;21.016;2023-06-24T14:08:46;23.00;99.90
17033;DHT22;63208;52.178;21.016;2023-06-24T14:11:13;22.90;99.90
17033;DHT22;63208;52.178;21.016;2023-06-24T14:13:41;22.70;99.90
17033;DHT22;63208;52.178;21.016;2023-06-24T14:16:08;22.70;99.90
17033;DHT22;63208;52.178;21.016;2023-06-24T14:19:05;22.40;99.90
17033;DHT22;63208;52.178;21.016;2023-06-24T14:21:31;22.70;99.90
17033;DHT22;63208;52.178;21.016;2023-06-24T14:24:01;22.40;99.90
17033;DHT22;63208;52.178;21.016;2023-06-24T14:26:27;22.40;99.90
17033;DHT22;63208;52.178;21.016;2023-06-24T14:28:54;22.30;99.90
17033;DHT22;63208;52.178;21.016;2023-06-24T14:33:50;22.50;99.90
17033;DHT22;63208;52.178;21.016;2023-06-24T14:36:18;22.10;99.90
17033;DHT22;63208;52.178;21.016;2023-06-24T14:38:45;22.10;99.90
17033;DHT22;63208;52.178;21.016;2023-06-24T14:41:12;22.00;99.90
17033;DHT22;63208;52.178;21.016;2023-06-24T14:43:39;21.90;99.90
17033;DHT22;63208;52.178;21.016;2023-06-24T14:46:18;21.90;99.90
17033;DHT22;63208;52.178;21.016;2023-06-24T14:49:00;21.80;99.90
17033;DHT22;63208;52.178;21.016;2023-06-24T14:54:51;23.10;99.90
17033;DHT22;63208;52.178;21.016;2023-06-24T14:57:18;21.40;99.90
17033;DHT22;63208;52.178;21.016;2023-06-24T14:59:46;21.30;99.90
17033;DHT22;63208;52.178;21.016;2023-06-24T15:02:13;21.10;99.90
17033;DHT22;63208;52.178;21.016;2023-06-24T15:04:39;21.40;99.90
17033;DHT22;63208;52.178;21.016;2023-06-24T15:07:06;21.10;99.90
17033;DHT22;63208;52.178;21.016;2023-06-24T15:09:33;20.90;99.90
17033;DHT22;63208;52.178;21.016;2023-06-24T15:12:02;21.00;99.90
17033;DHT22;63208;52.178;21.016;2023-06-24T15:14:29;21.00;99.90
17033;DHT22;63208;52.178;21.016;2023-06-24T15:16:56;21.00;99.90
17033;DHT22;63208;52.178;21.016;2023-06-24T15:19:24;21.00;99.90
17033;DHT22;63208;52.178;21.016;2023-06-24T15:21:50;20.90;99.90
17033;DHT22;63208;52.178;21.016;2023-06-24T15:24:17;20.70;99.90
17033;DHT22;63208;52.178;21.016;2023-06-24T15:26:44;20.70;99.90
17033;DHT22;63208;52.178;21.016;2023-06-24T15:29:24;20.70;99.90
17033;DHT22;63208;52.178;21.016;2023-06-24T15:31:51;20.60;99.90
17033;DHT22;63208;52.178;21.016;2023-06-24T15:34:19;20.50;99.90
17033;DHT22;63208;52.178;21.016;2023-06-24T15:36:46;20.60;99.90
17033;DHT22;63208;52.178;21.016;2023-06-24T15:39:12;20.50;99.90
17033;DHT22;63208;52.178;21.016;2023-06-24T15:48:54;20.40;99.90
17033;DHT22;63208;52.178;21.016;2023-06-24T15:51:21;20.50;99.90
17033;DHT22;63208;52.178;21.016;2023-06-24T15:53:48;20.30;99.90
17033;DHT22;63208;52.178;21.016;2023-06-24T15:56:15;20.70;99.90
17033;DHT22;63208;52.178;21.016;2023-06-24T15:58:42;20.10;99.90
17033;DHT22;63208;52.178;21.016;2023-06-24T16:01:08;20.10;99.90
17033;DHT22;63208;52.178;21.016;2023-06-24T16:03:35;20.00;99.90
17033;DHT22;63208;52.178;21.016;2023-06-24T16:06:05;20.00;99.90
17033;DHT22;63208;52.178;21.016;2023-06-24T16:08:32;20.00;99.90
17033;DHT22;63208;52.178;21.016;2023-06-24T16:10:59;19.90;99.90
17033;DHT22;63208;52.178;21.016;2023-06-24T16:13:27;19.80;99.90
17033;DHT22;63208;52.178;21.016;2023-06-24T16:15:56;19.80;99.90
17033;DHT22;63208;52.178;21.016;2023-06-24T16:18:23;20.10;99.90
17033;DHT22;63208;52.178;21.016;2023-06-24T16:20:50;19.80;99.90
17033;DHT22;63208;52.178;21.016;2023-06-24T16:23:19;19.80;99.90
17033;DHT22;63208;52.178;21.016;2023-06-24T16:25:46;19.80;99.90
17033;DHT22;63208;52.178;21.016;2023-06-24T16:28:14;19.80;99.90
17033;DHT22;63208;52.178;21.016;2023-06-24T16:30:41;19.90;99.90
17033;DHT22;63208;52.178;21.016;2023-06-24T16:33:08;19.90;99.90
17033;DHT22;63208;52.178;21.016;2023-06-24T16:35:36;19.90;99.90
17033;DHT22;63208;52.178;21.016;2023-06-24T16:38:16;20.10;99.90
17033;DHT22;63208;52.178;21.016;2023-06-24T16:40:44;20.00;99.90
17033;DHT22;63208;52.178;21.016;2023-06-24T16:43:24;20.40;99.90
17033;DHT22;63208;52.178;21.016;2023-06-24T16:45:51;20.30;99.90
17033;DHT22;63208;52.178;21.016;2023-06-24T16:48:19;20.50;99.90
17033;DHT22;63208;52.178;21.016;2023-06-24T17:00:58;21.00;99.90
17033;DHT22;63208;52.178;21.016;2023-06-24T17:03:25;21.00;99.90
17033;DHT22;63208;52.178;21.016;2023-06-24T17:05:51;21.10;99.90
17033;DHT22;63208;52.178;21.016;2023-06-24T17:08:18;21.10;99.90
17033;DHT22;63208;52.178;21.016;2023-06-24T17:10:45;21.30;99.90
17033;DHT22;63208;52.178;21.016;2023-06-24T17:13:12;21.70;99.90
17033;DHT22;63208;52.178;21.016;2023-06-24T17:15:38;21.50;99.90
17033;DHT22;63208;52.178;21.016;2023-06-24T17:18:07;21.50;99.90
17033;DHT22;63208;52.178;21.016;2023-06-24T17:20:33;21.60;99.90
17033;DHT22;63208;52.178;21.016;2023-06-24T17:23:00;21.60;99.90
17033;DHT22;63208;52.178;21.016;2023-06-24T17:25:27;21.70;99.90